sensor_id;sensor_type;location;lat;lon;timestamp;P1;durP1;ratioP1;P2;durP2;ratioP2
34405;SDS011;20658;45.630;8.886;2023-04-24T00:01:55;10.25;;;5.53;;
34405;SDS011;20658;45.630;8.886;2023-04-24T00:04:29;10.45;;;5.60;;
34405;SDS011;20658;45.630;8.886;2023-04-24T00:06:58;7.90;;;3.80;;
34405;SDS011;20658;45.630;8.886;2023-04-24T00:09:31;10.10;;;3.67;;
34405;SDS011;20658;45.630;8.886;2023-04-24T00:12:04;7.00;;;3.25;;
34405;SDS011;20658;45.630;8.886;2023-04-24T00:14:38;4.47;;;2.60;;
34405;SDS011;20658;45.630;8.886;2023-04-24T00:17:07;4.22;;;2.05;;
34405;SDS011;20658;45.630;8.886;2023-04-24T00:19:40;5.03;;;1.58;;
34405;SDS011;20658;45.630;8.886;2023-04-24T00:22:09;3.65;;;1.80;;
34405;SDS011;20658;45.630;8.886;2023-04-24T00:24:42;4.60;;;1.35;;
34405;SDS011;20658;45.630;8.886;2023-04-24T00:27:16;3.40;;;1.80;;
34405;SDS011;20658;45.630;8.886;2023-04-24T00:29:49;2.45;;;1.30;;
34405;SDS011;20658;45.630;8.886;2023-04-24T00:32:19;2.10;;;1.50;;
34405;SDS011;20658;45.630;8.886;2023-04-24T00:34:52;2.63;;;1.67;;
34405;SDS011;20658;45.630;8.886;2023-04-24T00:37:25;4.15;;;1.33;;
34405;SDS011;20658;45.630;8.886;2023-04-24T00:39:53;4.55;;;1.65;;
34405;SDS011;20658;45.630;8.886;2023-04-24T00:42:22;3.60;;;1.35;;
34405;SDS011;20658;45.630;8.886;2023-04-24T00:44:55;1.90;;;1.20;;
34405;SDS011;20658;45.630;8.886;2023-04-24T00:47:31;3.15;;;1.25;;
34405;SDS011;20658;45.630;8.886;2023-04-24T00:50:01;2.92;;;1.35;;
34405;SDS011;20658;45.630;8.886;2023-04-24T00:52:34;1.85;;;1.23;;
34405;SDS011;20658;45.630;8.886;2023-04-24T00:55:08;2.60;;;1.27;;
34405;SDS011;20658;45.630;8.886;2023-04-24T00:57:42;3.63;;;1.50;;
34405;SDS011;20658;45.630;8.886;2023-04-24T01:00:16;3.03;;;1.02;;
34405;SDS011;20658;45.630;8.886;2023-04-24T01:02:51;5.18;;;1.48;;
34405;SDS011;20658;45.630;8.886;2023-04-24T01:05:25;4.95;;;2.20;;
34405;SDS011;20658;45.630;8.886;2023-04-24T01:07:58;3.35;;;2.13;;
34405;SDS011;20658;45.630;8.886;2023-04-24T01:10:32;3.55;;;2.20;;
34405;SDS011;20658;45.630;8.886;2023-04-24T01:13:07;6.75;;;1.70;;
34405;SDS011;20658;45.630;8.886;2023-04-24T01:15:43;2.30;;;1.55;;
34405;SDS011;20658;45.630;8.886;2023-04-24T01:18:18;2.70;;;1.65;;
34405;SDS011;20658;45.630;8.886;2023-04-24T01:20:53;3.38;;;1.75;;
34405;SDS011;20658;45.630;8.886;2023-04-24T01:23:31;3.33;;;1.88;;
34405;SDS011;20658;45.630;8.886;2023-04-24T01:26:05;5.35;;;1.80;;
34405;SDS011;20658;45.630;8.886;2023-04-24T01:28:38;2.10;;;1.52;;
34405;SDS011;20658;45.630;8.886;2023-04-24T01:31:12;2.65;;;1.52;;
34405;SDS011;20658;45.630;8.886;2023-04-24T01:33:46;3.45;;;1.73;;
34405;SDS011;20658;45.630;8.886;2023-04-24T01:36:20;3.33;;;1.00;;
34405;SDS011;20658;45.630;8.886;2023-04-24T01:38:55;4.57;;;1.10;;
34405;SDS011;20658;45.630;8.886;2023-04-24T01:41:29;1.50;;;1.08;;
34405;SDS011;20658;45.630;8.886;2023-04-24T01:44:02;3.67;;;1.27;;
34405;SDS011;20658;45.630;8.886;2023-04-24T01:46:36;2.97;;;1.17;;
34405;SDS011;20658;45.630;8.886;2023-04-24T01:49:09;4.25;;;1.73;;
34405;SDS011;20658;45.630;8.886;2023-04-24T01:51:44;4.95;;;0.98;;
34405;SDS011;20658;45.630;8.886;2023-04-24T01:54:19;2.80;;;1.30;;
34405;SDS011;20658;45.630;8.886;2023-04-24T01:56:47;4.00;;;1.15;;
34405;SDS011;20658;45.630;8.886;2023-04-24T01:59:21;2.00;;;1.20;;
34405;SDS011;20658;45.630;8.886;2023-04-24T02:01:52;3.70;;;1.45;;
34405;SDS011;20658;45.630;8.886;2023-04-24T02:04:26;2.70;;;1.20;;
34405;SDS011;20658;45.630;8.886;2023-04-24T02:06:59;2.95;;;1.50;;
34405;SDS011;20658;45.630;8.886;2023-04-24T02:09:33;4.13;;;1.25;;
34405;SDS011;20658;45.630;8.886;2023-04-24T02:12:06;3.15;;;1.42;;
34405;SDS011;20658;45.630;8.886;2023-04-24T02:14:35;3.53;;;1.65;;
34405;SDS011;20658;45.630;8.886;2023-04-24T02:17:09;2.10;;;1.13;;
34405;SDS011;20658;45.630;8.886;2023-04-24T02:19:43;3.33;;;1.25;;
34405;SDS011;20658;45.630;8.886;2023-04-24T02:22:17;1.95;;;1.23;;
34405;SDS011;20658;45.630;8.886;2023-04-24T02:24:52;2.80;;;1.27;;
34405;SDS011;20658;45.630;8.886;2023-04-24T02:27:25;3.55;;;0.98;;
34405;SDS011;20658;45.630;8.886;2023-04-24T02:29:54;2.25;;;1.10;;
34405;SDS011;20658;45.630;8.886;2023-04-24T02:32:27;2.78;;;0.98;;
34405;SDS011;20658;45.630;8.886;2023-04-24T02:34:57;2.65;;;0.95;;
34405;SDS011;20658;45.630;8.886;2023-04-24T02:37:31;2.25;;;1.13;;
34405;SDS011;20658;45.630;8.886;2023-04-24T02:40:06;4.18;;;0.93;;
34405;SDS011;20658;45.630;8.886;2023-04-24T02:42:36;3.47;;;1.45;;
34405;SDS011;20658;45.630;8.886;2023-04-24T02:45:09;2.47;;;1.00;;
34405;SDS011;20658;45.630;8.886;2023-04-24T02:47:43;1.67;;;1.00;;
34405;SDS011;20658;45.630;8.886;2023-04-24T02:50:17;2.30;;;0.80;;
34405;SDS011;20658;45.630;8.886;2023-04-24T02:52:45;2.97;;;1.20;;
34405;SDS011;20658;45.630;8.886;2023-04-24T02:55:14;3.40;;;1.10;;
34405;SDS011;20658;45.630;8.886;2023-04-24T02:57:48;4.60;;;1.17;;
34405;SDS011;20658;45.630;8.886;2023-04-24T03:00:21;3.70;;;1.33;;
34405;SDS011;20658;45.630;8.886;2023-04-24T03:02:55;4.10;;;0.95;;
34405;SDS011;20658;45.630;8.886;2023-04-24T03:05:28;5.18;;;1.25;;
34405;SDS011;20658;45.630;8.886;2023-04-24T03:08:02;2.90;;;1.48;;
34405;SDS011;20658;45.630;8.886;2023-04-24T03:10:36;3.33;;;1.00;;
34405;SDS011;20658;45.630;8.886;2023-04-24T03:13:09;4.85;;;0.82;;
34405;SDS011;20658;45.630;8.886;2023-04-24T03:15:43;3.35;;;1.05;;
34405;SDS011;20658;45.630;8.886;2023-04-24T03:18:17;3.38;;;0.80;;
34405;SDS011;20658;45.630;8.886;2023-04-24T03:20:51;2.60;;;0.70;;
34405;SDS011;20658;45.630;8.886;2023-04-24T03:23:25;3.15;;;0.93;;
34405;SDS011;20658;45.630;8.886;2023-04-24T03:26:00;2.92;;;1.20;;
34405;SDS011;20658;45.630;8.886;2023-04-24T03:28:37;4.30;;;1.35;;
34405;SDS011;20658;45.630;8.886;2023-04-24T03:31:10;5.15;;;1.40;;
34405;SDS011;20658;45.630;8.886;2023-04-24T03:33:38;1.95;;;1.10;;
34405;SDS011;20658;45.630;8.886;2023-04-24T03:36:11;3.97;;;1.40;;
34405;SDS011;20658;45.630;8.886;2023-04-24T03:38:45;2.20;;;1.17;;
34405;SDS011;20658;45.630;8.886;2023-04-24T03:41:26;3.60;;;1.17;;
34405;SDS011;20658;45.630;8.886;2023-04-24T03:44:20;5.28;;;0.90;;
34405;SDS011;20658;45.630;8.886;2023-04-24T03:46:49;6.63;;;2.00;;
34405;SDS011;20658;45.630;8.886;2023-04-24T03:49:23;4.47;;;1.45;;
34405;SDS011;20658;45.630;8.886;2023-04-24T03:51:57;3.22;;;1.38;;
34405;SDS011;20658;45.630;8.886;2023-04-24T03:54:30;3.38;;;0.88;;
34405;SDS011;20658;45.630;8.886;2023-04-24T03:57:00;4.00;;;0.98;;
34405;SDS011;20658;45.630;8.886;2023-04-24T04:02:09;3.72;;;1.15;;
34405;SDS011;20658;45.630;8.886;2023-04-24T04:04:42;2.38;;;0.90;;
34405;SDS011;20658;45.630;8.886;2023-04-24T04:07:10;2.40;;;1.10;;
34405;SDS011;20658;45.630;8.886;2023-04-24T04:09:39;4.10;;;1.00;;
34405;SDS011;20658;45.630;8.886;2023-04-24T04:12:13;4.53;;;1.60;;
34405;SDS011;20658;45.630;8.886;2023-04-24T04:14:42;2.10;;;1.20;;
34405;SDS011;20658;45.630;8.886;2023-04-24T04:17:15;3.53;;;1.30;;
34405;SDS011;20658;45.630;8.886;2023-04-24T04:19:49;4.22;;;1.20;;
34405;SDS011;20658;45.630;8.886;2023-04-24T04:22:22;3.80;;;1.40;;
34405;SDS011;20658;45.630;8.886;2023-04-24T04:24:57;8.40;;;1.42;;
34405;SDS011;20658;45.630;8.886;2023-04-24T04:27:32;2.65;;;1.40;;
34405;SDS011;20658;45.630;8.886;2023-04-24T04:30:09;2.17;;;1.20;;
34405;SDS011;20658;45.630;8.886;2023-04-24T04:32:54;5.10;;;1.40;;
34405;SDS011;20658;45.630;8.886;2023-04-24T04:35:28;2.22;;;0.90;;
34405;SDS011;20658;45.630;8.886;2023-04-24T04:38:02;2.33;;;1.38;;
34405;SDS011;20658;45.630;8.886;2023-04-24T04:40:41;2.78;;;1.20;;
34405;SDS011;20658;45.630;8.886;2023-04-24T04:43:17;4.55;;;1.60;;
34405;SDS011;20658;45.630;8.886;2023-04-24T04:45:50;2.35;;;1.08;;
34405;SDS011;20658;45.630;8.886;2023-04-24T04:49:02;4.40;;;1.00;;
34405;SDS011;20658;45.630;8.886;2023-04-24T04:51:35;2.20;;;0.90;;
34405;SDS011;20658;45.630;8.886;2023-04-24T04:54:09;4.40;;;1.33;;
34405;SDS011;20658;45.630;8.886;2023-04-24T04:56:38;4.20;;;1.48;;
34405;SDS011;20658;45.630;8.886;2023-04-24T04:59:12;2.97;;;1.60;;
34405;SDS011;20658;45.630;8.886;2023-04-24T05:01:41;2.28;;;1.23;;
34405;SDS011;20658;45.630;8.886;2023-04-24T05:04:15;4.18;;;1.58;;
34405;SDS011;20658;45.630;8.886;2023-04-24T05:06:48;3.47;;;1.60;;
34405;SDS011;20658;45.630;8.886;2023-04-24T05:09:25;7.47;;;2.90;;
34405;SDS011;20658;45.630;8.886;2023-04-24T05:12:03;2.75;;;1.30;;
34405;SDS011;20658;45.630;8.886;2023-04-24T05:14:46;2.78;;;1.20;;
34405;SDS011;20658;45.630;8.886;2023-04-24T05:17:19;5.03;;;1.55;;
34405;SDS011;20658;45.630;8.886;2023-04-24T05:19:54;3.13;;;1.23;;
34405;SDS011;20658;45.630;8.886;2023-04-24T05:22:28;6.28;;;1.38;;
34405;SDS011;20658;45.630;8.886;2023-04-24T05:25:02;1.98;;;0.93;;
34405;SDS011;20658;45.630;8.886;2023-04-24T05:27:52;4.28;;;1.30;;
34405;SDS011;20658;45.630;8.886;2023-04-24T05:30:27;5.65;;;2.17;;
34405;SDS011;20658;45.630;8.886;2023-04-24T05:33:01;3.00;;;0.98;;
34405;SDS011;20658;45.630;8.886;2023-04-24T05:35:34;1.85;;;1.02;;
34405;SDS011;20658;45.630;8.886;2023-04-24T05:38:08;6.57;;;1.88;;
34405;SDS011;20658;45.630;8.886;2023-04-24T05:40:41;2.88;;;1.40;;
34405;SDS011;20658;45.630;8.886;2023-04-24T05:43:14;2.15;;;1.20;;
34405;SDS011;20658;45.630;8.886;2023-04-24T05:45:49;2.95;;;1.33;;
34405;SDS011;20658;45.630;8.886;2023-04-24T05:48:22;3.08;;;1.60;;
34405;SDS011;20658;45.630;8.886;2023-04-24T05:50:55;4.20;;;1.48;;
34405;SDS011;20658;45.630;8.886;2023-04-24T05:53:28;6.28;;;1.52;;
34405;SDS011;20658;45.630;8.886;2023-04-24T05:56:02;3.40;;;1.65;;
34405;SDS011;20658;45.630;8.886;2023-04-24T05:58:35;3.78;;;1.80;;
34405;SDS011;20658;45.630;8.886;2023-04-24T06:01:10;5.80;;;2.30;;
34405;SDS011;20658;45.630;8.886;2023-04-24T06:03:40;4.78;;;1.80;;
34405;SDS011;20658;45.630;8.886;2023-04-24T06:06:14;6.18;;;1.65;;
34405;SDS011;20658;45.630;8.886;2023-04-24T06:08:47;5.05;;;2.13;;
34405;SDS011;20658;45.630;8.886;2023-04-24T06:11:20;9.00;;;3.88;;
34405;SDS011;20658;45.630;8.886;2023-04-24T06:13:54;6.93;;;2.47;;
34405;SDS011;20658;45.630;8.886;2023-04-24T06:16:37;7.45;;;2.25;;
34405;SDS011;20658;45.630;8.886;2023-04-24T06:19:25;8.15;;;1.63;;
34405;SDS011;20658;45.630;8.886;2023-04-24T06:21:59;1.75;;;1.02;;
34405;SDS011;20658;45.630;8.886;2023-04-24T06:24:33;2.15;;;0.95;;
34405;SDS011;20658;45.630;8.886;2023-04-24T06:27:06;1.52;;;0.73;;
34405;SDS011;20658;45.630;8.886;2023-04-24T06:29:40;3.53;;;0.90;;
34405;SDS011;20658;45.630;8.886;2023-04-24T06:32:14;2.40;;;1.10;;
34405;SDS011;20658;45.630;8.886;2023-04-24T06:34:47;1.52;;;0.90;;
34405;SDS011;20658;45.630;8.886;2023-04-24T06:37:21;2.60;;;0.80;;
34405;SDS011;20658;45.630;8.886;2023-04-24T06:39:49;1.77;;;0.98;;
34405;SDS011;20658;45.630;8.886;2023-04-24T06:42:22;2.13;;;0.70;;
34405;SDS011;20658;45.630;8.886;2023-04-24T06:44:56;2.65;;;1.50;;
34405;SDS011;20658;45.630;8.886;2023-04-24T06:47:26;1.73;;;0.85;;
34405;SDS011;20658;45.630;8.886;2023-04-24T06:49:54;1.13;;;0.73;;
34405;SDS011;20658;45.630;8.886;2023-04-24T06:52:27;1.20;;;0.80;;
34405;SDS011;20658;45.630;8.886;2023-04-24T06:55:04;2.90;;;0.98;;
34405;SDS011;20658;45.630;8.886;2023-04-24T06:57:38;1.75;;;0.70;;
34405;SDS011;20658;45.630;8.886;2023-04-24T07:00:07;1.23;;;0.57;;
34405;SDS011;20658;45.630;8.886;2023-04-24T07:02:44;2.20;;;1.08;;
34405;SDS011;20658;45.630;8.886;2023-04-24T07:05:17;0.93;;;0.60;;
34405;SDS011;20658;45.630;8.886;2023-04-24T07:07:52;3.45;;;0.63;;
34405;SDS011;20658;45.630;8.886;2023-04-24T07:10:25;1.90;;;0.60;;
34405;SDS011;20658;45.630;8.886;2023-04-24T07:12:59;5.03;;;0.80;;
34405;SDS011;20658;45.630;8.886;2023-04-24T07:15:33;2.60;;;0.65;;
34405;SDS011;20658;45.630;8.886;2023-04-24T07:18:08;2.05;;;0.30;;
34405;SDS011;20658;45.630;8.886;2023-04-24T07:20:41;2.40;;;0.60;;
34405;SDS011;20658;45.630;8.886;2023-04-24T07:23:15;1.08;;;0.75;;
34405;SDS011;20658;45.630;8.886;2023-04-24T07:25:48;1.83;;;0.47;;
34405;SDS011;20658;45.630;8.886;2023-04-24T07:28:21;1.20;;;0.60;;
34405;SDS011;20658;45.630;8.886;2023-04-24T07:30:55;3.47;;;0.75;;
34405;SDS011;20658;45.630;8.886;2023-04-24T07:33:29;1.60;;;0.43;;
34405;SDS011;20658;45.630;8.886;2023-04-24T07:36:03;1.02;;;0.47;;
34405;SDS011;20658;45.630;8.886;2023-04-24T07:38:36;1.60;;;0.60;;
34405;SDS011;20658;45.630;8.886;2023-04-24T07:41:10;2.75;;;0.80;;
34405;SDS011;20658;45.630;8.886;2023-04-24T07:43:43;2.78;;;1.15;;
34405;SDS011;20658;45.630;8.886;2023-04-24T07:46:17;3.10;;;0.80;;
34405;SDS011;20658;45.630;8.886;2023-04-24T07:48:51;0.88;;;0.50;;
34405;SDS011;20658;45.630;8.886;2023-04-24T07:51:25;5.03;;;0.60;;
34405;SDS011;20658;45.630;8.886;2023-04-24T07:53:59;1.55;;;0.60;;
34405;SDS011;20658;45.630;8.886;2023-04-24T07:56:32;1.90;;;0.43;;
34405;SDS011;20658;45.630;8.886;2023-04-24T07:59:06;1.98;;;0.40;;
34405;SDS011;20658;45.630;8.886;2023-04-24T08:01:40;1.00;;;0.40;;
34405;SDS011;20658;45.630;8.886;2023-04-24T08:04:15;1.77;;;0.52;;
34405;SDS011;20658;45.630;8.886;2023-04-24T08:06:49;1.92;;;0.70;;
34405;SDS011;20658;45.630;8.886;2023-04-24T08:09:22;2.30;;;0.50;;
34405;SDS011;20658;45.630;8.886;2023-04-24T08:11:55;1.70;;;0.65;;
34405;SDS011;20658;45.630;8.886;2023-04-24T08:14:29;2.38;;;0.43;;
34405;SDS011;20658;45.630;8.886;2023-04-24T08:17:02;1.52;;;0.40;;
34405;SDS011;20658;45.630;8.886;2023-04-24T08:19:37;0.68;;;0.40;;
34405;SDS011;20658;45.630;8.886;2023-04-24T08:22:14;0.40;;;0.40;;
34405;SDS011;20658;45.630;8.886;2023-04-24T08:24:47;1.58;;;0.40;;
34405;SDS011;20658;45.630;8.886;2023-04-24T08:27:20;1.35;;;0.50;;
34405;SDS011;20658;45.630;8.886;2023-04-24T08:29:54;1.80;;;0.30;;
34405;SDS011;20658;45.630;8.886;2023-04-24T08:32:27;1.83;;;0.60;;
34405;SDS011;20658;45.630;8.886;2023-04-24T08:35:02;3.53;;;0.30;;
34405;SDS011;20658;45.630;8.886;2023-04-24T08:37:36;2.45;;;0.40;;
34405;SDS011;20658;45.630;8.886;2023-04-24T08:40:12;2.10;;;0.40;;
34405;SDS011;20658;45.630;8.886;2023-04-24T08:42:47;2.35;;;0.50;;
34405;SDS011;20658;45.630;8.886;2023-04-24T08:45:21;2.05;;;0.30;;
34405;SDS011;20658;45.630;8.886;2023-04-24T08:47:57;1.92;;;0.28;;
34405;SDS011;20658;45.630;8.886;2023-04-24T08:50:32;0.30;;;0.30;;
34405;SDS011;20658;45.630;8.886;2023-04-24T08:53:07;1.38;;;0.45;;
34405;SDS011;20658;45.630;8.886;2023-04-24T08:55:41;3.97;;;0.77;;
34405;SDS011;20658;45.630;8.886;2023-04-24T08:58:19;0.90;;;0.52;;
34405;SDS011;20658;45.630;8.886;2023-04-24T09:00:48;2.08;;;0.60;;
34405;SDS011;20658;45.630;8.886;2023-04-24T09:03:22;1.38;;;0.50;;
34405;SDS011;20658;45.630;8.886;2023-04-24T09:05:57;1.80;;;0.65;;
34405;SDS011;20658;45.630;8.886;2023-04-24T09:08:31;2.28;;;0.50;;
34405;SDS011;20658;45.630;8.886;2023-04-24T09:11:06;2.20;;;0.50;;
34405;SDS011;20658;45.630;8.886;2023-04-24T09:13:39;0.50;;;0.43;;
34405;SDS011;20658;45.630;8.886;2023-04-24T09:16:13;0.98;;;0.60;;
34405;SDS011;20658;45.630;8.886;2023-04-24T09:18:47;1.10;;;0.52;;
34405;SDS011;20658;45.630;8.886;2023-04-24T09:21:21;0.52;;;0.40;;
34405;SDS011;20658;45.630;8.886;2023-04-24T09:23:58;2.15;;;0.57;;
34405;SDS011;20658;45.630;8.886;2023-04-24T09:26:34;3.95;;;0.57;;
34405;SDS011;20658;45.630;8.886;2023-04-24T09:29:13;6.00;;;0.70;;
34405;SDS011;20658;45.630;8.886;2023-04-24T09:31:47;2.20;;;0.40;;
34405;SDS011;20658;45.630;8.886;2023-04-24T09:34:21;4.50;;;0.70;;
34405;SDS011;20658;45.630;8.886;2023-04-24T09:36:57;3.10;;;0.80;;
34405;SDS011;20658;45.630;8.886;2023-04-24T09:39:31;1.33;;;0.60;;
34405;SDS011;20658;45.630;8.886;2023-04-24T09:42:04;0.90;;;0.47;;
34405;SDS011;20658;45.630;8.886;2023-04-24T09:44:37;0.82;;;0.38;;
34405;SDS011;20658;45.630;8.886;2023-04-24T09:47:10;1.45;;;0.70;;
34405;SDS011;20658;45.630;8.886;2023-04-24T09:49:44;6.00;;;1.45;;
34405;SDS011;20658;45.630;8.886;2023-04-24T09:52:18;4.60;;;1.15;;
34405;SDS011;20658;45.630;8.886;2023-04-24T09:54:52;2.80;;;0.70;;
34405;SDS011;20658;45.630;8.886;2023-04-24T09:57:26;1.25;;;0.60;;
34405;SDS011;20658;45.630;8.886;2023-04-24T09:59:59;1.80;;;0.80;;
34405;SDS011;20658;45.630;8.886;2023-04-24T10:02:36;1.95;;;0.75;;
34405;SDS011;20658;45.630;8.886;2023-04-24T10:05:10;2.85;;;1.10;;
34405;SDS011;20658;45.630;8.886;2023-04-24T10:07:45;4.75;;;0.70;;
34405;SDS011;20658;45.630;8.886;2023-04-24T10:10:18;4.45;;;1.00;;
34405;SDS011;20658;45.630;8.886;2023-04-24T10:12:52;1.77;;;0.68;;
34405;SDS011;20658;45.630;8.886;2023-04-24T10:15:26;2.80;;;0.60;;
34405;SDS011;20658;45.630;8.886;2023-04-24T10:17:59;4.75;;;0.90;;
34405;SDS011;20658;45.630;8.886;2023-04-24T10:20:33;2.53;;;0.70;;
34405;SDS011;20658;45.630;8.886;2023-04-24T10:23:10;3.10;;;0.57;;
34405;SDS011;20658;45.630;8.886;2023-04-24T10:25:44;1.55;;;0.73;;
34405;SDS011;20658;45.630;8.886;2023-04-24T10:28:17;2.05;;;0.80;;
34405;SDS011;20658;45.630;8.886;2023-04-24T10:30:52;4.78;;;0.75;;
34405;SDS011;20658;45.630;8.886;2023-04-24T10:33:27;4.25;;;0.75;;
34405;SDS011;20658;45.630;8.886;2023-04-24T10:36:02;2.55;;;0.80;;
34405;SDS011;20658;45.630;8.886;2023-04-24T10:38:38;2.20;;;0.70;;
34405;SDS011;20658;45.630;8.886;2023-04-24T10:41:14;2.80;;;0.40;;
34405;SDS011;20658;45.630;8.886;2023-04-24T10:44:03;1.58;;;0.82;;
34405;SDS011;20658;45.630;8.886;2023-04-24T10:46:38;2.03;;;0.45;;
34405;SDS011;20658;45.630;8.886;2023-04-24T10:49:15;5.05;;;1.02;;
34405;SDS011;20658;45.630;8.886;2023-04-24T10:51:48;2.85;;;1.42;;
34405;SDS011;20658;45.630;8.886;2023-04-24T10:54:26;2.47;;;0.88;;
34405;SDS011;20658;45.630;8.886;2023-04-24T11:00:14;1.95;;;0.68;;
34405;SDS011;20658;45.630;8.886;2023-04-24T11:02:51;3.08;;;0.50;;
34405;SDS011;20658;45.630;8.886;2023-04-24T11:05:49;1.52;;;0.85;;
34405;SDS011;20658;45.630;8.886;2023-04-24T11:08:25;3.15;;;0.80;;
34405;SDS011;20658;45.630;8.886;2023-04-24T11:11:09;1.75;;;0.93;;
34405;SDS011;20658;45.630;8.886;2023-04-24T11:14:07;1.80;;;1.03;;
34405;SDS011;20658;45.630;8.886;2023-04-24T11:16:44;1.42;;;0.93;;
34405;SDS011;20658;45.630;8.886;2023-04-24T11:19:24;1.77;;;1.05;;
34405;SDS011;20658;45.630;8.886;2023-04-24T11:22:00;2.65;;;0.90;;
34405;SDS011;20658;45.630;8.886;2023-04-24T11:24:31;3.17;;;1.00;;
34405;SDS011;20658;45.630;8.886;2023-04-24T11:27:18;2.45;;;0.70;;
34405;SDS011;20658;45.630;8.886;2023-04-24T11:29:58;3.50;;;1.90;;
34405;SDS011;20658;45.630;8.886;2023-04-24T11:32:29;1.33;;;0.75;;
34405;SDS011;20658;45.630;8.886;2023-04-24T11:35:07;2.75;;;0.82;;
34405;SDS011;20658;45.630;8.886;2023-04-24T11:37:45;2.35;;;0.80;;
34405;SDS011;20658;45.630;8.886;2023-04-24T11:40:21;3.90;;;0.90;;
34405;SDS011;20658;45.630;8.886;2023-04-24T11:42:59;2.08;;;0.93;;
34405;SDS011;20658;45.630;8.886;2023-04-24T11:45:32;1.52;;;0.70;;
34405;SDS011;20658;45.630;8.886;2023-04-24T11:48:06;3.83;;;1.13;;
34405;SDS011;20658;45.630;8.886;2023-04-24T11:50:40;3.65;;;0.60;;
34405;SDS011;20658;45.630;8.886;2023-04-24T11:53:19;1.27;;;0.80;;
34405;SDS011;20658;45.630;8.886;2023-04-24T11:55:48;2.10;;;0.70;;
34405;SDS011;20658;45.630;8.886;2023-04-24T11:58:22;0.85;;;0.50;;
34405;SDS011;20658;45.630;8.886;2023-04-24T12:00:57;2.45;;;0.52;;
34405;SDS011;20658;45.630;8.886;2023-04-24T12:03:32;2.65;;;1.15;;
34405;SDS011;20658;45.630;8.886;2023-04-24T12:06:05;1.85;;;0.50;;
34405;SDS011;20658;45.630;8.886;2023-04-24T12:08:39;5.30;;;0.75;;
34405;SDS011;20658;45.630;8.886;2023-04-24T12:11:14;1.95;;;0.52;;
34405;SDS011;20658;45.630;8.886;2023-04-24T12:13:53;0.65;;;0.38;;
34405;SDS011;20658;45.630;8.886;2023-04-24T12:16:26;2.05;;;0.38;;
34405;SDS011;20658;45.630;8.886;2023-04-24T12:18:59;2.63;;;0.95;;
34405;SDS011;20658;45.630;8.886;2023-04-24T12:21:34;2.28;;;0.30;;
34405;SDS011;20658;45.630;8.886;2023-04-24T12:24:07;2.53;;;0.25;;
34405;SDS011;20658;45.630;8.886;2023-04-24T12:26:42;0.90;;;0.40;;
34405;SDS011;20658;45.630;8.886;2023-04-24T12:29:20;0.45;;;0.40;;
34405;SDS011;20658;45.630;8.886;2023-04-24T12:31:54;1.17;;;0.32;;
34405;SDS011;20658;45.630;8.886;2023-04-24T12:34:27;0.40;;;0.20;;
34405;SDS011;20658;45.630;8.886;2023-04-24T12:37:09;10.00;;;0.85;;
34405;SDS011;20658;45.630;8.886;2023-04-24T12:39:44;0.20;;;0.13;;
34405;SDS011;20658;45.630;8.886;2023-04-24T12:42:32;1.20;;;0.30;;
34405;SDS011;20658;45.630;8.886;2023-04-24T12:45:04;0.30;;;0.30;;
34405;SDS011;20658;45.630;8.886;2023-04-24T12:47:39;1.40;;;0.35;;
34405;SDS011;20658;45.630;8.886;2023-04-24T12:50:14;1.25;;;0.30;;
34405;SDS011;20658;45.630;8.886;2023-04-24T12:52:48;0.93;;;0.47;;
34405;SDS011;20658;45.630;8.886;2023-04-24T12:55:21;1.33;;;0.50;;
34405;SDS011;20658;45.630;8.886;2023-04-24T12:57:55;3.28;;;0.80;;
34405;SDS011;20658;45.630;8.886;2023-04-24T13:00:30;2.17;;;0.52;;
34405;SDS011;20658;45.630;8.886;2023-04-24T13:03:04;2.03;;;0.60;;
34405;SDS011;20658;45.630;8.886;2023-04-24T13:05:33;0.47;;;0.28;;
34405;SDS011;20658;45.630;8.886;2023-04-24T13:08:01;0.80;;;0.40;;
34405;SDS011;20658;45.630;8.886;2023-04-24T13:10:34;2.58;;;0.50;;
34405;SDS011;20658;45.630;8.886;2023-04-24T13:13:08;1.40;;;0.40;;
34405;SDS011;20658;45.630;8.886;2023-04-24T13:15:37;0.75;;;0.30;;
34405;SDS011;20658;45.630;8.886;2023-04-24T13:18:06;0.30;;;0.22;;
34405;SDS011;20658;45.630;8.886;2023-04-24T13:20:34;1.55;;;0.50;;
34405;SDS011;20658;45.630;8.886;2023-04-24T13:23:03;1.02;;;0.38;;
34405;SDS011;20658;45.630;8.886;2023-04-24T13:25:36;0.98;;;0.55;;
34405;SDS011;20658;45.630;8.886;2023-04-24T13:28:10;1.95;;;0.32;;
34405;SDS011;20658;45.630;8.886;2023-04-24T13:30:44;1.25;;;0.35;;
34405;SDS011;20658;45.630;8.886;2023-04-24T13:33:19;0.90;;;0.38;;
34405;SDS011;20658;45.630;8.886;2023-04-24T13:35:48;0.45;;;0.25;;
34405;SDS011;20658;45.630;8.886;2023-04-24T13:38:21;0.80;;;0.28;;
34405;SDS011;20658;45.630;8.886;2023-04-24T13:40:54;2.83;;;0.40;;
34405;SDS011;20658;45.630;8.886;2023-04-24T13:43:27;2.45;;;0.47;;
34405;SDS011;20658;45.630;8.886;2023-04-24T13:46:02;0.95;;;0.35;;
34405;SDS011;20658;45.630;8.886;2023-04-24T13:48:36;0.40;;;0.30;;
34405;SDS011;20658;45.630;8.886;2023-04-24T13:51:04;0.32;;;0.20;;
34405;SDS011;20658;45.630;8.886;2023-04-24T13:53:37;1.52;;;0.30;;
34405;SDS011;20658;45.630;8.886;2023-04-24T13:56:11;1.85;;;0.50;;
34405;SDS011;20658;45.630;8.886;2023-04-24T13:58:40;1.83;;;0.55;;
34405;SDS011;20658;45.630;8.886;2023-04-24T14:01:10;1.98;;;0.30;;
34405;SDS011;20658;45.630;8.886;2023-04-24T14:03:44;1.67;;;0.35;;
34405;SDS011;20658;45.630;8.886;2023-04-24T14:06:12;1.98;;;0.47;;
34405;SDS011;20658;45.630;8.886;2023-04-24T14:08:41;1.58;;;0.30;;
34405;SDS011;20658;45.630;8.886;2023-04-24T14:11:09;0.52;;;0.30;;
34405;SDS011;20658;45.630;8.886;2023-04-24T14:13:38;5.85;;;0.40;;
34405;SDS011;20658;45.630;8.886;2023-04-24T14:16:06;0.82;;;0.40;;
34405;SDS011;20658;45.630;8.886;2023-04-24T14:18:36;2.05;;;0.40;;
34405;SDS011;20658;45.630;8.886;2023-04-24T14:21:05;1.02;;;0.40;;
34405;SDS011;20658;45.630;8.886;2023-04-24T14:23:34;0.38;;;0.25;;
34405;SDS011;20658;45.630;8.886;2023-04-24T14:26:02;1.02;;;0.40;;
34405;SDS011;20658;45.630;8.886;2023-04-24T14:28:31;1.33;;;0.35;;
34405;SDS011;20658;45.630;8.886;2023-04-24T14:31:00;1.17;;;0.28;;
34405;SDS011;20658;45.630;8.886;2023-04-24T14:33:28;1.67;;;0.30;;
34405;SDS011;20658;45.630;8.886;2023-04-24T14:35:58;2.38;;;0.90;;
34405;SDS011;20658;45.630;8.886;2023-04-24T14:38:33;1.30;;;0.38;;
34405;SDS011;20658;45.630;8.886;2023-04-24T14:41:02;0.55;;;0.30;;
34405;SDS011;20658;45.630;8.886;2023-04-24T14:43:35;1.00;;;0.30;;
34405;SDS011;20658;45.630;8.886;2023-04-24T14:46:04;2.10;;;0.30;;
34405;SDS011;20658;45.630;8.886;2023-04-24T14:48:32;1.58;;;0.20;;
34405;SDS011;20658;45.630;8.886;2023-04-24T14:51:02;0.82;;;0.30;;
34405;SDS011;20658;45.630;8.886;2023-04-24T14:53:31;4.32;;;0.30;;
34405;SDS011;20658;45.630;8.886;2023-04-24T14:56:00;0.45;;;0.20;;
34405;SDS011;20658;45.630;8.886;2023-04-24T14:58:29;2.85;;;0.20;;
34405;SDS011;20658;45.630;8.886;2023-04-24T15:00:57;0.80;;;0.30;;
34405;SDS011;20658;45.630;8.886;2023-04-24T15:03:26;0.88;;;0.30;;
34405;SDS011;20658;45.630;8.886;2023-04-24T15:05:55;0.38;;;0.20;;
34405;SDS011;20658;45.630;8.886;2023-04-24T15:08:25;3.97;;;0.63;;
34405;SDS011;20658;45.630;8.886;2023-04-24T15:10:53;0.95;;;0.43;;
34405;SDS011;20658;45.630;8.886;2023-04-24T15:13:22;1.02;;;0.40;;
34405;SDS011;20658;45.630;8.886;2023-04-24T15:15:51;0.57;;;0.32;;
34405;SDS011;20658;45.630;8.886;2023-04-24T15:18:19;0.52;;;0.20;;
34405;SDS011;20658;45.630;8.886;2023-04-24T15:20:47;0.35;;;0.28;;
34405;SDS011;20658;45.630;8.886;2023-04-24T15:23:16;2.78;;;0.38;;
34405;SDS011;20658;45.630;8.886;2023-04-24T15:25:46;1.42;;;0.30;;
34405;SDS011;20658;45.630;8.886;2023-04-24T15:28:15;4.85;;;0.30;;
34405;SDS011;20658;45.630;8.886;2023-04-24T15:30:44;0.40;;;0.30;;
34405;SDS011;20658;45.630;8.886;2023-04-24T15:33:12;3.08;;;0.30;;